createdAt,value
2023-05-09T00:00:31.856Z,9.38
2023-05-09T00:01:00.392Z,9.38
2023-05-09T00:01:32.043Z,9.38
2023-05-09T00:02:02.502Z,9.38
2023-05-09T00:02:34.293Z,9.50
2023-05-09T00:03:05.410Z,9.50
2023-05-09T00:03:36.126Z,9.50
2023-05-09T00:04:06.435Z,9.50
2023-05-09T00:04:38.150Z,9.50
2023-05-09T00:05:08.836Z,9.50
2023-05-09T00:05:40.096Z,9.38
2023-05-09T00:06:10.718Z,9.38
2023-05-09T00:06:42.066Z,9.38
2023-05-09T00:07:12.361Z,9.38
2023-05-09T00:07:44.059Z,9.38
2023-05-09T00:08:15.387Z,9.38
2023-05-09T00:08:46.812Z,9.38
2023-05-09T00:09:16.586Z,9.38
2023-05-09T00:09:48.123Z,9.27
2023-05-09T00:10:18.997Z,9.27
2023-05-09T00:10:50.155Z,9.27
2023-05-09T00:11:20.354Z,9.27
2023-05-09T00:11:52.155Z,9.22
2023-05-09T00:12:22.386Z,9.22
2023-05-09T00:12:54.197Z,9.22
2023-05-09T00:13:25.490Z,9.22
2023-05-09T00:13:56.084Z,9.22
2023-05-09T00:14:26.399Z,9.22
2023-05-09T00:14:58.565Z,9.22
2023-05-09T00:15:29.792Z,9.22
2023-05-09T00:16:00.184Z,9.22
2023-05-09T00:16:30.500Z,9.22
2023-05-09T00:17:02.174Z,9.11
2023-05-09T00:17:32.365Z,9.00
2023-05-09T00:18:04.176Z,9.00
2023-05-09T00:18:35.363Z,9.00
2023-05-09T00:19:06.521Z,9.00
2023-05-09T00:19:36.846Z,9.00
2023-05-09T00:20:08.471Z,9.00
2023-05-09T00:20:38.422Z,9.00
2023-05-09T00:21:10.517Z,8.88
2023-05-09T00:21:40.424Z,8.88
2023-05-09T00:22:12.637Z,8.88
2023-05-09T00:22:42.382Z,8.88
2023-05-09T00:23:14.159Z,8.88
2023-05-09T00:23:45.422Z,8.88
2023-05-09T00:24:16.092Z,8.88
2023-05-09T00:24:46.357Z,8.88
2023-05-09T00:25:18.890Z,8.77
2023-05-09T00:25:48.407Z,8.77
2023-05-09T00:26:20.266Z,8.72
2023-05-09T00:26:50.375Z,8.72
2023-05-09T00:27:22.041Z,8.72
2023-05-09T00:27:52.354Z,8.72
2023-05-09T00:28:24.053Z,8.72
2023-05-09T00:28:55.778Z,8.72
2023-05-09T00:29:26.359Z,8.72
2023-05-09T00:29:56.393Z,8.61
2023-05-09T00:30:28.893Z,8.61
2023-05-09T00:30:58.422Z,8.61
2023-05-09T00:31:30.073Z,8.61
2023-05-09T00:32:00.407Z,8.61
2023-05-09T00:32:32.086Z,8.61
2023-05-09T00:33:03.123Z,8.61
2023-05-09T00:33:34.038Z,8.61
2023-05-09T00:34:05.390Z,8.61
2023-05-09T00:34:36.039Z,8.61
2023-05-09T00:35:06.912Z,8.61
2023-05-09T00:35:38.504Z,8.61
2023-05-09T00:36:08.812Z,8.61
2023-05-09T00:36:40.085Z,8.50
2023-05-09T00:37:10.490Z,8.50
2023-05-09T00:37:42.069Z,8.50
2023-05-09T00:38:12.383Z,8.38
2023-05-09T00:38:44.049Z,8.38
2023-05-09T00:39:15.361Z,8.38
2023-05-09T00:39:46.407Z,8.38
2023-05-09T00:40:17.675Z,8.38
2023-05-09T00:40:47.392Z,8.38
2023-05-09T00:41:19.063Z,8.38
2023-05-09T00:41:49.419Z,8.38
2023-05-09T00:42:21.115Z,8.38
2023-05-09T00:42:51.344Z,8.38
2023-05-09T00:43:23.069Z,8.38
2023-05-09T00:43:53.396Z,8.38
2023-05-09T00:44:26.057Z,8.38
2023-05-09T00:44:55.369Z,8.38
2023-05-09T00:45:27.891Z,8.38
2023-05-09T00:45:57.429Z,8.50
2023-05-09T00:46:29.292Z,8.50
2023-05-09T00:46:59.372Z,8.50
2023-05-09T00:47:31.060Z,8.50
2023-05-09T00:48:01.365Z,8.50
2023-05-09T00:48:33.088Z,8.50
2023-05-09T00:49:03.348Z,8.50
2023-05-09T00:49:36.067Z,8.50
2023-05-09T00:50:06.285Z,8.50
2023-05-09T00:50:37.155Z,8.61
2023-05-09T00:51:07.414Z,8.61
2023-05-09T00:51:39.070Z,8.61
2023-05-09T00:52:09.424Z,8.61
2023-05-09T00:52:41.143Z,8.61
2023-05-09T00:53:11.904Z,8.50
2023-05-09T00:53:43.204Z,8.50
2023-05-09T00:54:13.394Z,8.50
2023-05-09T00:54:46.032Z,8.50
2023-05-09T00:55:16.152Z,8.38
2023-05-09T00:55:47.041Z,8.38
2023-05-09T00:56:17.370Z,8.38
2023-05-09T00:56:49.082Z,8.38
2023-05-09T00:57:19.375Z,8.38
2023-05-09T00:57:51.065Z,8.38
2023-05-09T00:58:21.339Z,8.27
2023-05-09T00:58:53.060Z,8.27
2023-05-09T00:59:23.320Z,8.27
2023-05-09T00:59:56.063Z,8.27
2023-05-09T01:00:27.179Z,8.27
2023-05-09T01:00:58.810Z,8.27
2023-05-09T01:01:27.408Z,8.27
2023-05-09T01:01:59.045Z,8.27
2023-05-09T01:02:29.426Z,8.38
2023-05-09T01:03:01.283Z,8.38
2023-05-09T01:03:31.650Z,8.38
2023-05-09T01:04:03.138Z,8.38
2023-05-09T01:04:33.330Z,8.38
2023-05-09T01:05:07.112Z,8.27
2023-05-09T01:05:35.326Z,8.27
2023-05-09T01:06:07.239Z,8.27
2023-05-09T01:06:37.794Z,8.27
2023-05-09T01:07:09.177Z,8.27
2023-05-09T01:07:39.344Z,8.27
2023-05-09T01:08:11.205Z,8.27
2023-05-09T01:08:41.348Z,8.27
2023-05-09T01:09:13.173Z,8.27
2023-05-09T01:09:43.458Z,8.27
2023-05-09T01:10:16.565Z,8.38
2023-05-09T01:10:45.816Z,8.38
2023-05-09T01:11:17.065Z,8.38
2023-05-09T01:11:47.374Z,8.38
2023-05-09T01:12:19.146Z,8.38
2023-05-09T01:12:49.369Z,8.38
2023-05-09T01:13:21.555Z,8.38
2023-05-09T01:13:51.800Z,8.38
2023-05-09T01:14:23.068Z,8.38
2023-05-09T01:14:53.341Z,8.38
2023-05-09T01:15:27.023Z,8.38
2023-05-09T01:15:55.583Z,8.38
2023-05-09T01:16:27.136Z,8.38
2023-05-09T01:16:57.439Z,8.38
2023-05-09T01:17:29.314Z,8.38
2023-05-09T01:17:59.389Z,8.38
2023-05-09T01:18:31.216Z,8.38
2023-05-09T01:19:01.381Z,8.38
2023-05-09T01:19:33.189Z,8.50
2023-05-09T01:20:04.382Z,8.50
2023-05-09T01:20:37.863Z,8.61
2023-05-09T01:21:05.705Z,8.61
2023-05-09T01:21:37.082Z,8.61
2023-05-09T01:22:07.494Z,8.72
2023-05-09T01:22:39.028Z,8.77
2023-05-09T01:23:09.374Z,8.77
2023-05-09T01:23:41.096Z,8.77
2023-05-09T01:24:11.410Z,8.77
2023-05-09T01:24:43.248Z,8.77
2023-05-09T01:25:14.067Z,8.77
2023-05-09T01:25:46.573Z,8.72
2023-05-09T01:26:15.385Z,8.72
2023-05-09T01:26:46.858Z,8.72
2023-05-09T01:27:18.030Z,8.61
2023-05-09T01:27:48.421Z,8.61
2023-05-09T01:28:20.085Z,8.61
2023-05-09T01:28:50.324Z,8.72
2023-05-09T01:29:22.118Z,8.72
2023-05-09T01:29:52.347Z,8.77
2023-05-09T01:30:24.908Z,8.77
2023-05-09T01:30:55.524Z,8.77
2023-05-09T01:31:26.524Z,8.77
2023-05-09T01:31:56.367Z,8.77
2023-05-09T01:32:28.076Z,8.77
2023-05-09T01:32:58.450Z,8.77
2023-05-09T01:33:30.480Z,8.77
2023-05-09T01:34:00.405Z,8.77
2023-05-09T01:34:32.086Z,8.77
2023-05-09T01:35:03.305Z,8.77
2023-05-09T01:35:34.040Z,8.77
2023-05-09T01:36:05.890Z,8.77
2023-05-09T01:36:36.129Z,8.77
2023-05-09T01:37:06.433Z,8.77
2023-05-09T01:37:38.498Z,8.77
2023-05-09T01:38:08.434Z,8.88
2023-05-09T01:38:40.059Z,8.88
2023-05-09T01:39:10.414Z,8.88
2023-05-09T01:39:41.348Z,8.88
2023-05-09T01:40:14.263Z,8.88
2023-05-09T01:40:45.880Z,8.88
2023-05-09T01:41:16.103Z,8.88
2023-05-09T01:41:45.704Z,8.88
2023-05-09T01:42:17.148Z,8.88
2023-05-09T01:42:47.331Z,8.77
2023-05-09T01:43:19.077Z,8.77
2023-05-09T01:43:49.398Z,8.77
2023-05-09T01:44:21.097Z,8.77
2023-05-09T01:44:51.355Z,8.77
2023-05-09T01:45:24.021Z,8.77
2023-05-09T01:45:53.396Z,8.72
2023-05-09T01:46:26.224Z,8.72
2023-05-09T01:46:56.115Z,8.72
2023-05-09T01:47:27.138Z,8.72
2023-05-09T01:47:57.341Z,8.72
2023-05-09T01:48:29.059Z,8.72
2023-05-09T01:48:59.378Z,8.72
2023-05-09T01:49:31.097Z,8.61
2023-05-09T01:50:02.223Z,8.61
2023-05-09T01:50:33.052Z,8.50
2023-05-09T01:51:03.415Z,8.50
2023-05-09T01:51:36.145Z,8.50
2023-05-09T01:52:05.794Z,8.50
2023-05-09T01:52:37.153Z,8.50
2023-05-09T01:53:07.408Z,8.50
2023-05-09T01:53:39.479Z,8.61
2023-05-09T01:54:09.333Z,8.61
2023-05-09T01:54:41.106Z,8.61
2023-05-09T01:55:11.923Z,8.61
2023-05-09T01:55:43.226Z,8.61
2023-05-09T01:56:13.499Z,8.50
2023-05-09T01:56:46.125Z,8.38
2023-05-09T01:57:15.361Z,8.38
2023-05-09T01:57:47.043Z,8.38
2023-05-09T01:58:17.334Z,8.38
2023-05-09T01:58:49.056Z,8.38
2023-05-09T01:59:19.452Z,8.38
2023-05-09T01:59:51.104Z,8.27
2023-05-09T02:00:26.073Z,8.27
2023-05-09T02:00:54.675Z,8.27
2023-05-09T02:01:23.820Z,8.27
2023-05-09T02:01:56.121Z,8.27
2023-05-09T02:02:25.719Z,8.27
2023-05-09T02:02:57.145Z,8.27
2023-05-09T02:03:27.410Z,8.27
2023-05-09T02:03:59.052Z,8.27
2023-05-09T02:04:29.605Z,8.22
2023-05-09T02:05:02.742Z,8.22
2023-05-09T02:05:31.635Z,8.22
2023-05-09T02:06:03.465Z,8.11
2023-05-09T02:06:33.376Z,8.11
2023-05-09T02:07:06.103Z,8.11
2023-05-09T02:07:35.364Z,8.11
2023-05-09T02:08:07.268Z,8.11
2023-05-09T02:08:37.369Z,8.11
2023-05-09T02:09:09.102Z,8.00
2023-05-09T02:09:39.360Z,7.88
2023-05-09T02:10:11.635Z,7.77
2023-05-09T02:10:41.320Z,7.77
2023-05-09T02:11:13.119Z,7.77
2023-05-09T02:11:43.634Z,7.77
2023-05-09T02:12:16.185Z,7.77
2023-05-09T02:12:45.776Z,7.77
2023-05-09T02:13:17.097Z,7.77
2023-05-09T02:13:47.357Z,7.77
2023-05-09T02:14:19.097Z,7.77
2023-05-09T02:14:49.376Z,7.77
2023-05-09T02:15:21.965Z,7.77
2023-05-09T02:15:51.371Z,7.77
2023-05-09T02:16:23.075Z,7.77
2023-05-09T02:16:53.358Z,7.72
2023-05-09T02:17:26.038Z,7.72
2023-05-09T02:17:55.585Z,7.72
2023-05-09T02:18:27.491Z,7.72
2023-05-09T02:18:57.313Z,7.72
2023-05-09T02:19:29.015Z,7.72
2023-05-09T02:19:59.369Z,7.72
2023-05-09T02:20:37.700Z,7.72
2023-05-09T02:21:01.375Z,7.72
2023-05-09T02:21:33.240Z,7.77
2023-05-09T02:22:03.351Z,7.77
2023-05-09T02:22:40.153Z,7.77
2023-05-09T02:23:05.694Z,7.77
2023-05-09T02:23:36.392Z,7.77
2023-05-09T02:24:08.057Z,7.88
2023-05-09T02:24:38.503Z,8.00
2023-05-09T02:25:10.610Z,8.00
2023-05-09T02:25:40.409Z,8.00
2023-05-09T02:26:12.029Z,8.00
2023-05-09T02:26:42.444Z,8.00
2023-05-09T02:27:14.565Z,7.88
2023-05-09T02:27:45.369Z,8.00
2023-05-09T02:28:16.191Z,8.00
2023-05-09T02:28:46.362Z,8.11
2023-05-09T02:29:18.064Z,8.11
2023-05-09T02:29:48.395Z,8.11
2023-05-09T02:30:21.718Z,8.11
2023-05-09T02:30:50.363Z,8.11
2023-05-09T02:31:22.300Z,8.00
2023-05-09T02:31:52.399Z,7.88
2023-05-09T02:32:24.038Z,7.88
2023-05-09T02:32:55.679Z,7.88
2023-05-09T02:33:26.360Z,7.77
2023-05-09T02:33:56.517Z,7.72
2023-05-09T02:34:28.005Z,7.72
2023-05-09T02:34:58.304Z,7.61
2023-05-09T02:35:30.564Z,7.61
2023-05-09T02:36:00.353Z,7.61
2023-05-09T02:36:31.996Z,7.61
2023-05-09T02:37:02.506Z,7.61
2023-05-09T02:37:34.048Z,7.61
2023-05-09T02:38:05.372Z,7.61
2023-05-09T02:38:37.008Z,7.61
2023-05-09T02:39:06.449Z,7.61
2023-05-09T02:39:37.488Z,7.61
2023-05-09T02:40:09.570Z,7.61
2023-05-09T02:40:41.043Z,7.50
2023-05-09T02:41:11.093Z,7.50
2023-05-09T02:41:41.343Z,7.50
2023-05-09T02:42:13.101Z,7.50
2023-05-09T02:42:43.552Z,7.61
2023-05-09T02:43:16.739Z,7.72
2023-05-09T02:43:45.829Z,7.72
2023-05-09T02:44:17.114Z,7.72
2023-05-09T02:44:47.590Z,7.72
2023-05-09T02:45:20.161Z,7.61
2023-05-09T02:45:49.375Z,7.50
2023-05-09T02:46:21.082Z,7.50
2023-05-09T02:46:51.365Z,7.50
2023-05-09T02:47:23.515Z,7.50
2023-05-09T02:47:53.417Z,7.50
2023-05-09T02:48:26.116Z,7.50
2023-05-09T02:48:55.528Z,7.50
2023-05-09T02:49:32.320Z,7.50
2023-05-09T02:49:57.407Z,7.50
2023-05-09T02:50:29.627Z,7.50
2023-05-09T02:50:59.318Z,7.50
2023-05-09T02:51:31.040Z,7.50
2023-05-09T02:52:01.796Z,7.38
2023-05-09T02:52:33.117Z,7.38
2023-05-09T02:53:03.421Z,7.38
2023-05-09T02:53:37.280Z,7.38
2023-05-09T02:54:06.224Z,7.38
2023-05-09T02:54:36.431Z,7.38
2023-05-09T02:55:08.548Z,7.38
2023-05-09T02:55:38.365Z,7.38
2023-05-09T02:56:10.035Z,7.38
2023-05-09T02:56:40.418Z,7.50
2023-05-09T02:57:12.038Z,7.50
2023-05-09T02:57:42.331Z,7.50
2023-05-09T02:58:15.125Z,7.50
2023-05-09T02:58:45.322Z,7.38
2023-05-09T02:59:16.136Z,7.38
2023-05-09T02:59:46.306Z,7.38
2023-05-09T03:00:19.465Z,7.38
2023-05-09T03:00:48.802Z,7.38
2023-05-09T03:01:20.126Z,7.38
2023-05-09T03:01:50.542Z,7.38
2023-05-09T03:02:22.126Z,7.27
2023-05-09T03:02:52.643Z,7.27
2023-05-09T03:03:24.286Z,7.27
2023-05-09T03:03:55.517Z,7.27
2023-05-09T03:04:27.539Z,7.38
2023-05-09T03:04:56.779Z,7.38
2023-05-09T03:05:28.764Z,7.38
2023-05-09T03:05:58.373Z,7.38
2023-05-09T03:06:30.184Z,7.38
2023-05-09T03:07:00.808Z,7.38
2023-05-09T03:07:32.753Z,7.27
2023-05-09T03:08:02.625Z,7.27
2023-05-09T03:08:35.063Z,7.27
2023-05-09T03:09:05.406Z,7.27
2023-05-09T03:09:36.207Z,7.27
2023-05-09T03:10:07.311Z,7.27
2023-05-09T03:10:38.303Z,7.38
2023-05-09T03:11:08.483Z,7.38
2023-05-09T03:11:40.079Z,7.38
2023-05-09T03:12:10.403Z,7.50
2023-05-09T03:12:42.088Z,7.50
2023-05-09T03:13:12.473Z,7.50
2023-05-09T03:13:44.068Z,7.50
2023-05-09T03:14:15.952Z,7.50
2023-05-09T03:14:46.480Z,7.50
2023-05-09T03:15:17.366Z,7.38
2023-05-09T03:15:48.064Z,7.38
2023-05-09T03:16:18.542Z,7.38
2023-05-09T03:16:50.050Z,7.27
2023-05-09T03:17:20.436Z,7.22
2023-05-09T03:17:52.085Z,7.22
2023-05-09T03:18:23.205Z,7.22
2023-05-09T03:18:54.189Z,7.11
2023-05-09T03:19:25.469Z,7.11
2023-05-09T03:19:56.088Z,7.11
2023-05-09T03:20:29.497Z,7.00
2023-05-09T03:20:58.556Z,7.00
2023-05-09T03:21:28.423Z,7.00
2023-05-09T03:22:00.169Z,7.11
2023-05-09T03:22:30.368Z,7.11
2023-05-09T03:23:02.178Z,7.11
2023-05-09T03:23:32.410Z,7.11
2023-05-09T03:24:04.187Z,7.11
2023-05-09T03:24:35.815Z,7.11
2023-05-09T03:25:07.169Z,7.11
2023-05-09T03:25:36.339Z,7.11
2023-05-09T03:26:08.054Z,7.11
2023-05-09T03:26:38.437Z,7.11
2023-05-09T03:27:10.058Z,7.11
2023-05-09T03:27:40.459Z,7.11
2023-05-09T03:28:12.100Z,7.11
2023-05-09T03:28:42.503Z,7.11
2023-05-09T03:29:14.109Z,7.11
2023-05-09T03:29:45.398Z,7.11
2023-05-09T03:30:18.377Z,7.11
2023-05-09T03:30:46.500Z,7.11
2023-05-09T03:31:18.316Z,7.11
2023-05-09T03:31:48.867Z,7.11
2023-05-09T03:32:20.377Z,7.11
2023-05-09T03:32:50.643Z,7.11
2023-05-09T03:33:22.258Z,7.11
2023-05-09T03:33:52.498Z,7.00
2023-05-09T03:34:24.750Z,7.00
2023-05-09T03:34:55.487Z,6.88
2023-05-09T03:35:27.034Z,6.88
2023-05-09T03:35:56.537Z,6.88
2023-05-09T03:36:28.151Z,6.88
2023-05-09T03:36:58.554Z,6.88
2023-05-09T03:37:30.198Z,6.88
2023-05-09T03:38:00.710Z,6.88
2023-05-09T03:38:32.290Z,6.88
2023-05-09T03:39:02.900Z,6.88
2023-05-09T03:39:33.500Z,6.88
2023-05-09T03:40:06.205Z,6.88
2023-05-09T03:40:37.654Z,6.88
2023-05-09T03:41:06.531Z,6.88
2023-05-09T03:41:38.190Z,6.77
2023-05-09T03:42:08.518Z,6.77
2023-05-09T03:42:40.269Z,6.77
2023-05-09T03:43:10.564Z,6.77
2023-05-09T03:43:42.197Z,6.77
2023-05-09T03:44:12.415Z,6.72
2023-05-09T03:44:44.220Z,6.72
2023-05-09T03:45:16.839Z,6.72
2023-05-09T03:45:46.656Z,6.72
2023-05-09T03:46:16.578Z,6.72
2023-05-09T03:46:48.221Z,6.61
2023-05-09T03:47:18.516Z,6.61
2023-05-09T03:47:50.632Z,6.61
2023-05-09T03:48:20.517Z,6.61
2023-05-09T03:48:52.158Z,6.61
2023-05-09T03:49:22.478Z,6.61
2023-05-09T03:49:54.191Z,6.61
2023-05-09T03:50:26.347Z,6.72
2023-05-09T03:50:56.132Z,6.72
2023-05-09T03:51:26.421Z,6.72
2023-05-09T03:51:58.191Z,6.72
2023-05-09T03:52:28.473Z,6.72
2023-05-09T03:53:00.219Z,6.77
2023-05-09T03:53:30.452Z,6.77
2023-05-09T03:54:02.216Z,6.88
2023-05-09T03:54:32.480Z,7.00
2023-05-09T03:55:04.978Z,7.00
2023-05-09T03:55:35.697Z,7.00
2023-05-09T03:56:06.479Z,7.00
2023-05-09T03:56:36.469Z,7.00
2023-05-09T03:57:08.227Z,7.00
2023-05-09T03:57:38.558Z,7.00
2023-05-09T03:58:10.167Z,7.00
2023-05-09T03:58:41.059Z,7.00
2023-05-09T03:59:12.226Z,7.00
2023-05-09T03:59:42.426Z,7.00
2023-05-09T04:00:15.448Z,7.00
2023-05-09T04:00:48.816Z,7.00
2023-05-09T04:01:16.687Z,7.00
2023-05-09T04:01:46.558Z,7.00
2023-05-09T04:02:18.254Z,7.00
2023-05-09T04:02:48.500Z,7.00
2023-05-09T04:03:20.385Z,7.00
2023-05-09T04:03:50.511Z,6.72
2023-05-09T04:04:22.249Z,6.72
2023-05-09T04:04:52.451Z,6.72
2023-05-09T04:05:24.782Z,6.72
2023-05-09T04:05:55.459Z,6.72
2023-05-09T04:06:26.503Z,6.72
2023-05-09T04:06:56.558Z,6.72
2023-05-09T04:07:28.241Z,6.72
2023-05-09T04:07:58.531Z,6.72
2023-05-09T04:08:33.175Z,6.72
2023-05-09T04:09:00.492Z,6.72
2023-05-09T04:09:31.471Z,6.72
2023-05-09T04:10:03.794Z,6.72
2023-05-09T04:10:33.569Z,6.72
2023-05-09T04:11:06.195Z,6.72
2023-05-09T04:11:35.515Z,6.72
2023-05-09T04:12:07.272Z,6.72
2023-05-09T04:12:37.495Z,6.72
2023-05-09T04:13:09.441Z,6.72
2023-05-09T04:13:39.456Z,6.72
2023-05-09T04:14:11.175Z,6.72
2023-05-09T04:14:41.452Z,6.72
2023-05-09T04:15:15.078Z,6.72
2023-05-09T04:15:43.601Z,6.72
2023-05-09T04:16:16.193Z,6.72
2023-05-09T04:16:45.856Z,6.72
2023-05-09T04:17:17.329Z,6.72
2023-05-09T04:17:47.639Z,6.72
2023-05-09T04:18:19.246Z,6.72
2023-05-09T04:18:50.007Z,6.72
2023-05-09T04:19:21.125Z,6.72
2023-05-09T04:19:51.394Z,6.72
2023-05-09T04:20:23.713Z,6.72
2023-05-09T04:20:53.628Z,6.72
2023-05-09T04:21:26.256Z,6.72
2023-05-09T04:21:55.508Z,6.72
2023-05-09T04:22:27.225Z,6.72
2023-05-09T04:22:57.477Z,6.72
2023-05-09T04:23:29.171Z,6.72
2023-05-09T04:23:59.445Z,6.72
2023-05-09T04:24:31.187Z,6.72
2023-05-09T04:25:02.315Z,6.72
2023-05-09T04:25:33.155Z,6.72
2023-05-09T04:26:03.491Z,6.72
2023-05-09T04:26:36.253Z,6.72
2023-05-09T04:27:05.759Z,6.72
2023-05-09T04:27:37.474Z,6.72
2023-05-09T04:28:07.563Z,6.72
2023-05-09T04:28:39.203Z,6.77
2023-05-09T04:29:09.476Z,6.77
2023-05-09T04:29:41.171Z,6.77
2023-05-09T04:30:12.438Z,6.77
2023-05-09T04:30:43.391Z,6.77
2023-05-09T04:31:13.694Z,6.77
2023-05-09T04:31:46.367Z,6.77
2023-05-09T04:32:15.950Z,6.72
2023-05-09T04:32:47.228Z,6.61
2023-05-09T04:33:17.420Z,6.61
2023-05-09T04:33:49.223Z,6.61
2023-05-09T04:34:19.508Z,6.61
2023-05-09T04:34:51.668Z,6.61
2023-05-09T04:35:22.308Z,6.61
2023-05-09T04:35:53.168Z,6.61
2023-05-09T04:36:23.469Z,6.61
2023-05-09T04:36:56.184Z,6.61
2023-05-09T04:37:25.863Z,6.61
2023-05-09T04:37:57.196Z,6.61
2023-05-09T04:38:27.462Z,6.61
2023-05-09T04:38:59.180Z,6.61
2023-05-09T04:39:29.472Z,6.61
2023-05-09T04:40:00.703Z,6.61
2023-05-09T04:40:38.679Z,6.72
2023-05-09T04:41:02.560Z,6.72
2023-05-09T04:41:34.877Z,6.72
2023-05-09T04:42:05.480Z,6.72
2023-05-09T04:42:36.121Z,6.72
2023-05-09T04:43:06.530Z,6.72
2023-05-09T04:43:38.154Z,6.72
2023-05-09T04:44:08.459Z,6.72
2023-05-09T04:44:40.184Z,6.77
2023-05-09T04:45:11.453Z,6.77
2023-05-09T04:45:42.366Z,6.77
2023-05-09T04:46:12.466Z,6.77
2023-05-09T04:46:44.308Z,6.88
2023-05-09T04:47:15.479Z,6.88
2023-05-09T04:47:47.079Z,6.88
2023-05-09T04:48:16.566Z,6.88
2023-05-09T04:48:48.201Z,6.88
2023-05-09T04:49:18.468Z,7.00
2023-05-09T04:49:50.220Z,7.00
2023-05-09T04:50:20.985Z,7.00
2023-05-09T04:50:52.201Z,7.00
2023-05-09T04:51:22.583Z,7.00
2023-05-09T04:51:54.224Z,7.11
2023-05-09T04:52:25.472Z,7.11
2023-05-09T04:52:56.177Z,7.11
2023-05-09T04:53:26.549Z,7.11
2023-05-09T04:53:58.162Z,7.11
2023-05-09T04:54:28.509Z,7.22
2023-05-09T04:55:00.985Z,7.22
2023-05-09T04:55:31.202Z,7.22
2023-05-09T04:56:02.202Z,7.27
2023-05-09T04:56:32.458Z,7.27
2023-05-09T04:57:16.638Z,7.27
2023-05-09T04:57:35.480Z,7.27
2023-05-09T04:58:06.523Z,7.27
2023-05-09T04:58:36.587Z,7.27
2023-05-09T04:59:08.454Z,7.27
2023-05-09T04:59:38.450Z,7.27
2023-05-09T05:00:11.486Z,7.27
2023-05-09T05:00:47.055Z,7.38
2023-05-09T05:01:12.465Z,7.38
2023-05-09T05:01:42.483Z,7.38
2023-05-09T05:02:14.242Z,7.38
2023-05-09T05:02:46.123Z,7.38
2023-05-09T05:03:16.329Z,7.38
2023-05-09T05:03:46.525Z,7.38
2023-05-09T05:04:18.209Z,7.38
2023-05-09T05:04:48.546Z,7.50
2023-05-09T05:05:24.673Z,7.50
2023-05-09T05:05:51.125Z,7.50
2023-05-09T05:06:22.208Z,7.61
2023-05-09T05:06:52.526Z,7.72
2023-05-09T05:07:24.223Z,7.77
2023-05-09T05:07:55.495Z,7.77
2023-05-09T05:08:27.184Z,7.88
2023-05-09T05:08:56.471Z,8.00
2023-05-09T05:09:28.153Z,8.00
2023-05-09T05:09:58.510Z,8.22
2023-05-09T05:10:30.781Z,8.38
2023-05-09T05:11:00.565Z,8.38
2023-05-09T05:11:32.198Z,8.38
2023-05-09T05:12:04.266Z,8.38
2023-05-09T05:12:34.220Z,8.38
2023-05-09T05:13:05.778Z,8.38
2023-05-09T05:13:40.342Z,8.38
2023-05-09T05:14:06.504Z,8.38
2023-05-09T05:14:37.555Z,8.38
2023-05-09T05:15:11.229Z,8.38
2023-05-09T05:15:39.542Z,8.27
2023-05-09T05:16:11.374Z,8.27
2023-05-09T05:16:41.518Z,8.27
2023-05-09T05:17:13.280Z,8.27
2023-05-09T05:17:43.543Z,8.38
2023-05-09T05:18:16.172Z,8.38
2023-05-09T05:18:45.810Z,8.38
2023-05-09T05:19:17.261Z,8.38
2023-05-09T05:19:47.478Z,8.38
2023-05-09T05:20:19.745Z,8.27
2023-05-09T05:20:49.471Z,8.27
2023-05-09T05:21:21.179Z,8.27
2023-05-09T05:21:51.465Z,8.27
2023-05-09T05:22:23.112Z,8.27
2023-05-09T05:22:53.487Z,8.38
2023-05-09T05:23:26.216Z,8.38
2023-05-09T05:23:55.466Z,8.50
2023-05-09T05:24:27.199Z,8.61
2023-05-09T05:24:58.143Z,8.61
2023-05-09T05:25:29.667Z,8.61
2023-05-09T05:25:59.912Z,8.61
2023-05-09T05:26:31.443Z,8.61
2023-05-09T05:27:02.041Z,8.61
2023-05-09T05:27:33.184Z,8.61
2023-05-09T05:28:03.498Z,8.50
2023-05-09T05:28:37.096Z,8.50
2023-05-09T05:29:05.802Z,8.50
2023-05-09T05:29:36.610Z,8.50
2023-05-09T05:30:09.508Z,8.50
2023-05-09T05:30:38.705Z,8.50
2023-05-09T05:31:10.403Z,8.50
2023-05-09T05:31:40.712Z,8.61
2023-05-09T05:32:12.400Z,8.61
2023-05-09T05:32:43.389Z,8.61
2023-05-09T05:33:14.352Z,8.77
2023-05-09T05:33:45.655Z,8.77
2023-05-09T05:34:16.389Z,8.88
2023-05-09T05:34:46.650Z,8.88
2023-05-09T05:35:19.560Z,8.88
2023-05-09T05:35:48.732Z,8.88
2023-05-09T05:36:20.311Z,8.88
2023-05-09T05:36:50.647Z,8.88
2023-05-09T05:37:22.305Z,9.00
2023-05-09T05:37:52.552Z,9.00
2023-05-09T05:38:24.393Z,9.00
2023-05-09T05:38:55.632Z,9.11
2023-05-09T05:39:26.651Z,9.11
2023-05-09T05:39:56.595Z,9.11
2023-05-09T05:40:40.524Z,9.11
2023-05-09T05:40:58.591Z,9.22
2023-05-09T05:41:30.330Z,9.22
2023-05-09T05:42:00.830Z,9.22
2023-05-09T05:42:32.330Z,9.27
2023-05-09T05:43:02.792Z,9.27
2023-05-09T05:43:34.327Z,9.50
2023-05-09T05:44:05.617Z,9.61
2023-05-09T05:44:36.345Z,9.61
2023-05-09T05:45:07.629Z,9.61
2023-05-09T05:45:38.423Z,9.61
2023-05-09T05:46:09.453Z,9.61
2023-05-09T05:46:40.283Z,9.61
2023-05-09T05:47:10.614Z,9.61
2023-05-09T05:47:42.455Z,9.61
2023-05-09T05:48:12.652Z,9.50
2023-05-09T05:48:44.938Z,9.50
2023-05-09T05:49:15.624Z,9.50
2023-05-09T05:49:46.767Z,9.50
2023-05-09T05:50:17.273Z,9.50
2023-05-09T05:50:48.362Z,9.50
2023-05-09T05:51:18.664Z,9.50
2023-05-09T05:51:50.409Z,9.50
2023-05-09T05:52:20.629Z,9.50
2023-05-09T05:52:52.675Z,9.38
2023-05-09T05:53:22.650Z,9.38
2023-05-09T05:53:54.446Z,9.38
2023-05-09T05:54:25.605Z,9.38
2023-05-09T05:54:56.281Z,9.38
2023-05-09T05:55:27.839Z,9.38
2023-05-09T05:55:58.380Z,9.38
2023-05-09T05:56:28.649Z,9.38
2023-05-09T05:57:00.850Z,9.77
2023-05-09T05:57:30.659Z,9.77
2023-05-09T05:58:02.388Z,9.88
2023-05-09T05:58:32.918Z,9.88
2023-05-09T05:59:04.375Z,9.88
2023-05-09T05:59:35.822Z,9.88
2023-05-09T06:00:08.600Z,9.88
2023-05-09T06:00:40.546Z,9.88
2023-05-09T06:01:08.430Z,9.88
2023-05-09T06:01:38.761Z,9.88
2023-05-09T06:02:11.134Z,9.88
2023-05-09T06:02:40.909Z,9.88
2023-05-09T06:03:12.412Z,9.88
2023-05-09T06:03:42.814Z,9.88
2023-05-09T06:04:14.441Z,9.88
2023-05-09T06:04:45.564Z,9.88
2023-05-09T06:05:17.336Z,9.88
2023-05-09T06:05:46.685Z,9.88
2023-05-09T06:06:18.836Z,9.88
2023-05-09T06:06:48.687Z,9.88
2023-05-09T06:07:20.322Z,9.88
2023-05-09T06:07:50.861Z,9.88
2023-05-09T06:08:22.314Z,9.88
2023-05-09T06:08:52.611Z,9.88
2023-05-09T06:09:24.397Z,9.88
2023-05-09T06:09:55.628Z,9.88
2023-05-09T06:10:27.726Z,9.88
2023-05-09T06:10:56.917Z,9.77
2023-05-09T06:11:28.408Z,9.77
2023-05-09T06:11:58.705Z,9.77
2023-05-09T06:12:30.366Z,9.77
2023-05-09T06:13:01.562Z,9.77
2023-05-09T06:13:32.444Z,9.77
2023-05-09T06:14:02.840Z,9.77
2023-05-09T06:14:34.377Z,9.77
2023-05-09T06:15:06.704Z,9.77
2023-05-09T06:15:38.839Z,9.77
2023-05-09T06:16:18.594Z,9.77
2023-05-09T06:16:37.724Z,9.88
2023-05-09T06:17:09.342Z,9.88
2023-05-09T06:17:39.614Z,9.88
2023-05-09T06:18:11.378Z,9.88
2023-05-09T06:18:41.596Z,9.88
2023-05-09T06:19:13.563Z,9.88
2023-05-09T06:19:44.690Z,9.88
2023-05-09T06:20:16.933Z,9.88
2023-05-09T06:20:50.108Z,9.88
2023-05-09T06:21:17.372Z,9.88
2023-05-09T06:21:47.700Z,9.77
2023-05-09T06:22:20.141Z,9.77
2023-05-09T06:22:49.625Z,9.77
2023-05-09T06:23:21.285Z,9.61
2023-05-09T06:24:07.739Z,9.61
2023-05-09T06:24:34.596Z,9.61
2023-05-09T06:24:53.613Z,9.61
2023-05-09T06:25:26.924Z,9.61
2023-05-09T06:25:55.579Z,9.61
2023-05-09T06:26:27.943Z,9.61
2023-05-09T06:26:57.710Z,10.22
2023-05-09T06:27:29.276Z,10.22
2023-05-09T06:27:59.574Z,10.22
2023-05-09T06:28:31.373Z,10.22
2023-05-09T06:29:01.835Z,10.00
2023-05-09T06:29:33.295Z,10.00
2023-05-09T06:30:14.152Z,10.00
2023-05-09T06:30:40.357Z,10.22
2023-05-09T06:31:05.964Z,10.27
2023-05-09T06:31:36.577Z,10.38
2023-05-09T06:32:08.400Z,10.50
2023-05-09T06:32:38.735Z,10.61
2023-05-09T06:33:10.841Z,11.00
2023-05-09T06:33:40.660Z,11.11
2023-05-09T06:34:12.315Z,11.11
2023-05-09T06:34:42.714Z,11.11
2023-05-09T06:35:15.026Z,11.11
2023-05-09T06:35:46.276Z,11.00
2023-05-09T06:36:16.443Z,10.88
2023-05-09T06:36:46.750Z,10.77
2023-05-09T06:37:18.308Z,10.61
2023-05-09T06:37:49.251Z,10.61
2023-05-09T06:38:20.537Z,10.61
2023-05-09T06:38:50.614Z,10.61
2023-05-09T06:39:21.756Z,10.72
2023-05-09T06:39:53.308Z,10.72
2023-05-09T06:40:24.953Z,10.72
2023-05-09T06:40:55.644Z,10.77
2023-05-09T06:41:26.608Z,10.88
2023-05-09T06:41:56.641Z,10.88
2023-05-09T06:42:29.097Z,10.77
2023-05-09T06:42:59.669Z,10.77
2023-05-09T06:43:30.345Z,10.50
2023-05-09T06:44:01.003Z,10.27
2023-05-09T06:44:32.317Z,10.22
2023-05-09T06:45:03.799Z,10.22
2023-05-09T06:45:34.417Z,10.11
2023-05-09T06:46:05.933Z,10.11
2023-05-09T06:46:36.956Z,10.11
2023-05-09T06:47:06.619Z,10.00
2023-05-09T06:47:38.384Z,9.77
2023-05-09T06:48:08.753Z,9.77
2023-05-09T06:48:40.392Z,9.77
2023-05-09T06:49:10.733Z,9.77
2023-05-09T06:49:42.278Z,9.77
2023-05-09T06:50:13.449Z,9.88
2023-05-09T06:50:44.473Z,9.88
2023-05-09T06:51:15.553Z,9.88
2023-05-09T06:51:46.841Z,9.88
2023-05-09T06:52:16.600Z,9.88